Time;durP1;ratioP1;P1;durP2;ratioP2;P2;SDS_P1;SDS_P2;PMS_P1;PMS_P2;Temp;Humidity;BMP_temperature;BMP_pressure;BME280_temperature;BME280_humidity;BME280_pressure;Samples;Min_cycle;Max_cycle;Signal;HPM_P1;HPM_P2
2022/10/29 00:02:54;;;;;;;2.87;1.07;;;;;;;;;;20888287;28;20226;-68
2022/10/29 00:13:00;;;;;;;3.67;1.47;;;;;;;;;;20855519;28;20581;-68
2022/10/29 00:23:02;;;;;;;3.83;1.80;;;;;;;;;;20887147;28;21007;-68
2022/10/29 00:33:04;;;;;;;5.33;1.67;;;;;;;;;;20854009;28;20629;-68
2022/10/29 00:43:17;;;;;;;2.57;1.47;;;16.30;99.90;;;;;;20869808;28;20238;-68
2022/10/29 00:53:24;;;;;;;4.53;2.10;;;16.20;99.90;;;;;;20885591;28;20316;-68
2022/10/29 01:03:27;;;;;;;4.50;1.80;;;;;;;;;;20888283;28;20226;-68
2022/10/29 01:13:41;;;;;;;2.33;1.47;;;;;;;;;;20858785;28;20681;-68
2022/10/29 01:24:11;;;;;;;4.70;1.67;;;16.00;99.90;;;;;;20897909;28;20275;-68
2022/10/29 01:34:25;;;;;;;4.70;1.73;;;;;;;;;;20883555;28;20278;-68
2022/10/29 01:44:49;;;;;;;4.10;2.47;;;;;;;;;;20881916;28;20601;-68
2022/10/29 01:54:51;;;;;;;3.07;1.47;;;;;;;;;;20881904;28;20205;-68
2022/10/29 02:05:11;;;;;;;6.10;1.60;;;;;;;;;;20864696;28;20937;-68
2022/10/29 02:15:41;;;;;;;2.50;1.13;;;15.60;99.90;;;;;;20895778;28;20260;-68
2022/10/29 02:25:44;;;;;;;3.27;1.70;;;;;;;;;;20874298;28;20320;-68
2022/10/29 02:35:46;;;;;;;3.37;1.53;;;;;;;;;;20862464;28;20287;-68
2022/10/29 02:45:49;;;;;;;6.30;1.83;;;;;;;;;;20878165;28;20214;-68
2022/10/29 02:55:51;;;;;;;3.43;1.53;;;;;;;;;;20877420;28;20236;-68
2022/10/29 03:05:53;;;;;;;2.40;1.27;;;;;;;;;;20892333;28;20242;-68
2022/10/29 03:15:55;;;;;;;2.33;1.30;;;;;;;;;;20875477;28;20272;-68
2022/10/29 03:25:57;;;;;;;3.07;1.23;;;;;;;;;;20847449;28;20700;-68
2022/10/29 03:36:00;;;;;;;2.30;1.20;;;;;;;;;;20874533;28;20263;-68
2022/10/29 03:46:03;;;;;;;2.47;1.13;;;;;;;;;;20889275;28;20230;-68
2022/10/29 03:56:05;;;;;;;3.07;1.40;;;;;;;;;;20872229;28;20206;-68
2022/10/29 04:06:12;;;;;;;3.40;1.43;;;15.30;99.90;;;;;;20855397;28;20794;-68
2022/10/29 04:16:14;;;;;;;4.63;2.37;;;;;;;;;;20870483;28;20213;-68
2022/10/29 04:26:16;;;;;;;1.80;1.20;;;;;;;;;;20853019;28;20625;-68
2022/10/29 04:36:18;;;;;;;3.93;1.43;;;;;;;;;;20869343;28;20213;-68
2022/10/29 04:46:20;;;;;;;3.23;1.50;;;;;;;;;;20869097;28;20221;-68
2022/10/29 04:56:22;;;;;;;2.47;1.50;;;;;;;;;;20868952;28;20693;-68
2022/10/29 05:06:24;;;;;;;3.87;1.47;;;;;;;;;;20852394;28;20539;-67
2022/10/29 05:16:25;;;;;;;3.33;1.30;;;;;;;;;;20852363;28;20214;-69
2022/10/29 05:26:30;;;;;;;3.13;1.37;;;;;;;;;;20857274;28;20608;-67
2022/10/29 05:36:32;;;;;;;2.03;1.30;;;;;;;;;;20882887;22;20234;-76
2022/10/29 05:46:34;;;;;;;3.03;1.20;;;;;;;;;;20850877;28;20297;-76
2022/10/29 05:56:36;;;;;;;2.60;1.40;;;;;;;;;;20760313;28;20258;-76
2022/10/29 06:06:38;;;;;;;3.33;1.00;;;;;;;;;;20728030;28;20232;-76
2022/10/29 06:16:40;;;;;;;2.30;1.20;;;14.90;99.90;;;;;;20734451;28;20219;-76
2022/10/29 06:26:42;;;;;;;3.67;1.17;;;;;;;;;;20704943;28;20694;-77
2022/10/29 06:36:43;;;;;;;2.03;1.30;;;;;;;;;;20738515;28;20613;-75
2022/10/29 06:46:46;;;;;;;3.43;1.43;;;;;;;;;;20814989;28;20604;-75
2022/10/29 06:56:47;;;;;;;3.73;1.40;;;;;;;;;;20826516;28;20237;-75
2022/10/29 07:06:49;;;;;;;3.20;1.40;;;;;;;;;;20707717;28;20223;-77
2022/10/29 07:16:51;;;;;;;2.67;1.43;;;;;;;;;;20752863;28;20250;-75
2022/10/29 07:26:53;;;;;;;4.60;1.50;;;;;;;;;;20813176;28;20253;-77
2022/10/29 07:36:54;;;;;;;2.67;1.50;;;;;;;;;;20764306;28;20238;-75
2022/10/29 07:46:56;;;;;;;4.13;1.70;;;;;;;;;;20808784;28;20234;-74
2022/10/29 07:56:58;;;;;;;3.53;1.30;;;;;;;;;;20811427;28;20269;-76
2022/10/29 08:07:00;;;;;;;5.30;1.37;;;;;;;;;;20696339;28;20284;-76
2022/10/29 08:17:01;;;;;;;3.83;1.50;;;;;;;;;;20745277;28;20210;-75
2022/10/29 08:27:03;;;;;;;4.90;1.87;;;;;;;;;;20739127;28;20215;-75
2022/10/29 08:37:05;;;;;;;6.77;1.77;;;;;;;;;;20701296;28;20228;-75
2022/10/29 08:47:19;;;;;;;2.80;1.20;;;16.00;99.90;;;;;;20718761;28;20277;-75
2022/10/29 08:57:24;;;;;;;5.20;1.40;;;15.90;99.90;;;;;;20734928;28;20298;-75
2022/10/29 09:07:25;;;;;;;3.37;1.33;;;;;;;;;;20757133;28;20280;-76
2022/10/29 09:17:30;;;;;;;4.47;1.47;;;;;;;;;;20817271;28;20578;-75
2022/10/29 09:27:54;;;;;;;4.37;1.67;;;16.90;99.90;;;;;;20823503;28;20770;-75
2022/10/29 09:38:02;;;;;;;3.43;1.27;;;17.30;99.90;;;;;;20832694;28;20634;-75
2022/10/29 09:48:15;;;;;;;4.07;1.40;;;17.60;99.90;;;;;;20829848;28;20241;-74
2022/10/29 09:58:40;;;;;;;4.17;1.30;;;17.20;99.90;;;;;;20828465;28;20618;-75
2022/10/29 10:09:00;;;;;;;6.30;1.30;;;;;;;;;;20829179;28;20599;-74
2022/10/29 10:19:02;;;;;;;4.93;1.70;;;;;;;;;;20830180;28;20210;-75
2022/10/29 10:29:04;;;;;;;8.07;4.00;;;;;;;;;;20828537;28;20674;-75
2022/10/29 10:39:19;;;;;;;5.83;2.67;;;18.80;99.90;;;;;;20827728;28;20219;-75
2022/10/29 10:49:32;;;;;;;3.93;1.20;;;18.40;99.90;;;;;;20823387;28;20369;-75
2022/10/29 10:59:40;;;;;;;6.60;1.53;;;;;;;;;;20824652;28;20218;-75
2022/10/29 11:09:47;;;;;;;5.60;1.40;;;18.90;99.90;;;;;;20824666;28;20257;-75
2022/10/29 11:19:51;;;;;;;4.63;1.33;;;19.30;99.90;;;;;;20822357;28;20223;-74
2022/10/29 11:30:03;;;;;;;4.30;0.83;;;19.00;99.90;;;;;;20821869;28;20227;-74
2022/10/29 11:40:12;;;;;;;3.80;2.20;;;;;;;;;;20856915;22;20226;-69
2022/10/29 11:50:25;;;;;;;4.27;1.33;;;18.80;99.90;;;;;;20820587;28;20292;-71
2022/10/29 12:00:31;;;;;;;3.67;1.60;;;;;;;;;;20804780;28;20222;-71
2022/10/29 12:10:38;;;;;;;3.53;1.00;;;;;;;;;;20804604;28;20774;-71
2022/10/29 12:20:45;;;;;;;3.80;1.60;;;;;;;;;;20819534;28;20213;-71
2022/10/29 12:30:57;;;;;;;2.40;1.20;;;;;;;;;;20803118;28;20305;-71
2022/10/29 12:41:08;;;;;;;3.00;1.20;;;19.20;99.90;;;;;;20802680;28;20214;-71
2022/10/29 12:51:32;;;;;;;2.87;1.20;;;19.40;99.90;;;;;;20785705;28;20279;-71
2022/10/29 13:01:34;;;;;;;1.87;1.10;;;;;;;;;;20808240;28;20212;-71
2022/10/29 13:11:47;;;;;;;3.30;1.10;;;19.20;99.90;;;;;;20817028;28;20231;-72
2022/10/29 13:22:04;;;;;;;3.63;1.20;;;19.40;99.90;;;;;;20800740;28;20202;-72
2022/10/29 13:32:07;;;;;;;2.90;1.27;;;;;;;;;;20815905;28;20220;-72
2022/10/29 13:42:12;;;;;;;2.67;1.07;;;19.50;99.90;;;;;;20798866;28;20223;-72
2022/10/29 13:52:18;;;;;;;3.73;1.10;;;19.60;99.90;;;;;;20815634;28;20221;-72
2022/10/29 14:02:28;;;;;;;3.13;1.73;;;;;;;;;;20792586;28;20227;-72
2022/10/29 14:12:31;;;;;;;3.27;1.47;;;19.60;99.90;;;;;;20893767;28;20263;-72
2022/10/29 14:22:40;;;;;;;2.27;1.30;;;;;;;;;;20862070;28;20226;-72
2022/10/29 14:32:45;;;;;;;5.87;1.60;;;;;;;;;;20870008;28;20276;-72
2022/10/29 14:42:53;;;;;;;3.70;1.00;;;;;;;;;;20762157;28;20579;-71
2022/10/29 14:53:16;;;;;;;3.37;1.57;;;;;;;;;;20784102;28;20586;-70
2022/10/29 15:03:35;;;;;;;3.97;1.50;;;;;;;;;;20767322;28;20280;-70
2022/10/29 15:13:56;;;;;;;4.87;1.70;;;;;;;;;;20781091;28;20695;-71
2022/10/29 15:24:03;;;;;;;4.47;1.30;;;19.10;99.90;;;;;;20758920;28;20743;-70
2022/10/29 15:34:18;;;;;;;3.33;1.60;;;18.90;99.90;;;;;;20809905;28;20217;-71
2022/10/29 15:44:31;;;;;;;4.43;1.93;;;18.90;99.90;;;;;;20781596;28;20702;-71
2022/10/29 15:54:33;;;;;;;4.20;2.20;;;;;;;;;;20733261;28;20273;-71
2022/10/29 16:04:35;;;;;;;4.83;2.00;;;;;;;;;;20756861;28;20227;-70
2022/10/29 16:14:37;;;;;;;19.30;3.30;;;;;;;;;;20704978;28;20212;-70
2022/10/29 16:24:39;;;;;;;5.83;1.87;;;;;;;;;;20689116;28;20220;-70
2022/10/29 16:34:41;;;;;;;6.23;2.00;;;;;;;;;;20766927;28;20241;-69
2022/10/29 16:44:44;;;;;;;3.30;1.67;;;;;;;;;;20731946;28;20250;-70
2022/10/29 16:54:48;;;;;;;4.50;1.73;;;;;;;;;;20766408;28;20214;-70
2022/10/29 17:04:50;;;;;;;6.10;2.23;;;;;;;;;;20781053;28;20223;-70
2022/10/29 17:14:54;;;;;;;3.33;2.17;;;;;;;;;;20811688;28;20218;-69
2022/10/29 17:24:56;;;;;;;6.03;2.90;;;;;;;;;;20727613;28;20312;-69
2022/10/29 17:34:58;;;;;;;6.90;2.30;;;;;;;;;;20769684;28;20293;-69
2022/10/29 17:45:00;;;;;;;5.53;1.90;;;;;;;;;;20830141;22;20234;-69
2022/10/29 17:55:02;;;;;;;2.57;1.43;;;;;;;;;;20730597;28;20634;-69
2022/10/29 18:05:04;;;;;;;4.17;1.60;;;;;;;;;;20740527;28;20230;-69
2022/10/29 18:15:06;;;;;;;6.40;2.73;;;;;;;;;;20759520;28;20292;-70
2022/10/29 18:25:09;;;;;;;5.10;2.10;;;;;;;;;;20743406;28;20227;-70
2022/10/29 18:35:11;;;;;;;4.73;2.50;;;;;;;;;;20767922;28;20214;-69
2022/10/29 18:45:12;;;;;;;5.40;3.00;;;;;;;;;;20780236;28;20352;-68
2022/10/29 18:55:14;;;;;;;7.87;3.10;;;;;;;;;;20761273;28;20196;-68
2022/10/29 19:05:16;;;;;;;7.87;2.80;;;;;;;;;;20692100;28;20686;-68
2022/10/29 19:15:18;;;;;;;4.27;2.07;;;;;;;;;;20692896;28;20558;-68
2022/10/29 19:25:20;;;;;;;5.47;2.00;;;;;;;;;;20678140;28;20683;-69
2022/10/29 19:35:22;;;;;;;3.40;1.97;;;;;;;;;;20675254;28;20199;-68
2022/10/29 19:45:25;;;;;;;2.23;1.40;;;;;;;;;;20688662;28;20695;-68
2022/10/29 19:55:27;;;;;;;5.63;2.30;;;;;;;;;;20705976;28;20269;-68
2022/10/29 20:05:29;;;;;;;4.43;2.60;;;;;;;;;;20699027;28;20215;-68
2022/10/29 20:15:31;;;;;;;4.10;2.33;;;;;;;;;;20691263;28;20199;-68
2022/10/29 20:25:33;;;;;;;4.43;1.77;;;;;;;;;;20650759;28;21082;-68
2022/10/29 20:35:35;;;;;;;4.50;2.10;;;;;;;;;;20636093;28;20278;-68
2022/10/29 20:45:36;;;;;;;4.40;2.30;;;;;;;;;;20655906;28;20247;-68
2022/10/29 20:55:39;;;;;;;3.60;1.90;;;;;;;;;;20655541;28;20232;-68
2022/10/29 21:05:41;;;;;;;4.57;2.10;;;;;;;;;;20639899;28;20281;-68
2022/10/29 21:15:43;;;;;;;3.93;2.07;;;;;;;;;;20639708;28;20216;-68
2022/10/29 21:25:51;;;;;;;4.17;1.67;;;;;;;;;;20650804;28;20278;-68
2022/10/29 21:35:53;;;;;;;3.17;1.83;;;;;;;;;;20655563;28;20741;-68
2022/10/29 21:45:55;;;;;;;7.30;2.27;;;;;;;;;;20706397;28;20219;-68
2022/10/29 21:55:59;;;;;;;3.20;1.53;;;17.00;99.90;;;;;;20767786;28;20199;-68
2022/10/29 22:06:02;;;;;;;3.70;2.00;;;;;;;;;;20718056;28;20292;-68
2022/10/29 22:16:05;;;;;;;6.20;2.23;;;16.90;99.90;;;;;;20733505;28;20576;-68
2022/10/29 22:26:07;;;;;;;4.33;1.90;;;;;;;;;;20716438;28;20281;-68
2022/10/29 22:36:27;;;;;;;4.33;2.03;;;;;;;;;;20732607;28;20230;-68
2022/10/29 22:46:30;;;;;;;3.93;2.03;;;;;;;;;;20730596;28;20718;-68
2022/10/29 22:56:36;;;;;;;3.63;2.00;;;16.70;99.90;;;;;;20730116;28;20610;-68
2022/10/29 23:06:38;;;;;;;3.37;2.20;;;;;;;;;;20745907;28;20215;-69
2022/10/29 23:16:40;;;;;;;4.43;2.00;;;;;;;;;;20745427;28;20224;-68
2022/10/29 23:26:42;;;;;;;6.40;2.57;;;;;;;;;;20727775;28;20226;-68
2022/10/29 23:36:44;;;;;;;5.63;2.63;;;;;;;;;;20742565;28;20289;-68
2022/10/29 23:46:46;;;;;;;4.63;2.33;;;;;;;;;;20751289;23;20563;-71
2022/10/29 23:56:48;;;;;;;6.00;2.33;;;;;;;;;;20820825;28;20287;-72
